createdAt,value
2019-05-29T00:00:04.160Z,1015.71
2019-05-29T00:00:35.319Z,1015.70
2019-05-29T00:01:04.173Z,1015.73
2019-05-29T00:01:37.202Z,1015.69
2019-05-29T00:02:04.165Z,1015.71
2019-05-29T00:02:40.140Z,1015.76
2019-05-29T00:03:04.166Z,1015.76
2019-05-29T00:03:34.188Z,1015.74
2019-05-29T00:04:04.169Z,1015.76
2019-05-29T00:04:34.110Z,1015.77
2019-05-29T00:05:04.159Z,1015.77
2019-05-29T00:05:34.168Z,1015.76
2019-05-29T00:06:04.173Z,1015.76
2019-05-29T00:06:34.114Z,1015.78
2019-05-29T00:07:04.170Z,1015.79
2019-05-29T00:07:34.149Z,1015.77
2019-05-29T00:08:04.178Z,1015.82
2019-05-29T00:08:34.118Z,1015.82
2019-05-29T00:09:04.172Z,1015.81
2019-05-29T00:09:34.126Z,1015.82
2019-05-29T00:10:04.174Z,1015.83
2019-05-29T00:10:34.116Z,1015.86
2019-05-29T00:11:06.019Z,1015.83
2019-05-29T00:11:34.111Z,1015.85
2019-05-29T00:12:34.113Z,1015.85
2019-05-29T00:13:14.383Z,1015.85
2019-05-29T00:13:34.184Z,1015.87
2019-05-29T00:14:22.502Z,1015.89
2019-05-29T00:14:34.113Z,1015.89
2019-05-29T00:15:04.173Z,1015.90
2019-05-29T00:15:34.110Z,1015.90
2019-05-29T00:16:04.245Z,1015.91
2019-05-29T00:16:34.115Z,1015.90
2019-05-29T00:17:04.291Z,1015.91
2019-05-29T00:17:34.112Z,1015.91
2019-05-29T00:18:04.209Z,1015.94
2019-05-29T00:18:34.125Z,1015.94
2019-05-29T00:19:04.172Z,1015.91
2019-05-29T00:19:34.109Z,1015.97
2019-05-29T00:20:04.164Z,1015.98
2019-05-29T00:20:34.108Z,1015.96
2019-05-29T00:21:04.174Z,1015.97
2019-05-29T00:21:35.378Z,1015.96
2019-05-29T00:22:04.172Z,1015.97
2019-05-29T00:22:38.224Z,1015.97
2019-05-29T00:23:04.184Z,1015.98
2019-05-29T00:23:40.159Z,1015.95
2019-05-29T00:24:04.242Z,1015.96
2019-05-29T00:24:34.114Z,1015.96
2019-05-29T00:25:04.173Z,1015.96
2019-05-29T00:25:34.128Z,1016.00
2019-05-29T00:26:04.222Z,1015.98
2019-05-29T00:26:34.118Z,1015.99
2019-05-29T00:27:05.285Z,1016.01
2019-05-29T00:27:34.126Z,1015.99
2019-05-29T00:28:04.173Z,1015.98
2019-05-29T00:28:34.254Z,1015.98
2019-05-29T00:29:04.166Z,1015.98
2019-05-29T00:29:34.115Z,1016.00
2019-05-29T00:30:04.175Z,1015.98
2019-05-29T00:30:34.204Z,1015.98
2019-05-29T00:31:04.171Z,1016.01
2019-05-29T00:31:34.115Z,1016.02
2019-05-29T00:32:05.306Z,1015.99
2019-05-29T00:32:34.166Z,1016.00
2019-05-29T00:33:08.207Z,1015.98
2019-05-29T00:33:34.108Z,1016.02
2019-05-29T00:34:11.019Z,1016.00
2019-05-29T00:34:34.127Z,1016.01
2019-05-29T00:35:04.178Z,1015.99
2019-05-29T00:35:34.114Z,1015.99
2019-05-29T00:36:04.168Z,1015.99
2019-05-29T00:36:34.143Z,1016.00
2019-05-29T00:37:04.176Z,1015.98
2019-05-29T00:37:34.111Z,1015.98
2019-05-29T00:38:04.291Z,1016.00
2019-05-29T00:38:34.125Z,1015.97
2019-05-29T00:39:04.176Z,1015.96
2019-05-29T00:39:34.116Z,1015.97
2019-05-29T00:40:04.182Z,1016.00
2019-05-29T00:40:34.116Z,1015.99
2019-05-29T00:41:04.282Z,1015.98
2019-05-29T00:41:34.131Z,1015.97
2019-05-29T00:42:04.176Z,1016.00
2019-05-29T00:42:35.204Z,1016.01
2019-05-29T00:43:04.238Z,1015.97
2019-05-29T00:43:38.148Z,1015.99
2019-05-29T00:44:04.180Z,1016.00
2019-05-29T00:45:04.213Z,1016.01
2019-05-29T00:45:34.117Z,1016.03
2019-05-29T00:46:04.181Z,1016.04
2019-05-29T00:46:34.118Z,1016.05
2019-05-29T00:47:04.198Z,1016.02
2019-05-29T00:47:34.121Z,1016.05
2019-05-29T00:48:04.172Z,1016.00
2019-05-29T00:48:34.110Z,1016.02
2019-05-29T00:49:04.217Z,1016.03
2019-05-29T00:49:34.113Z,1016.02
2019-05-29T00:50:04.181Z,1016.01
2019-05-29T00:50:35.023Z,1016.00
2019-05-29T00:51:04.174Z,1016.01
2019-05-29T00:51:34.124Z,1016.01
2019-05-29T00:52:04.212Z,1016.03
2019-05-29T00:52:34.118Z,1016.03
2019-05-29T00:53:05.194Z,1016.01
2019-05-29T00:53:34.149Z,1016.02
2019-05-29T00:54:08.198Z,1016.02
2019-05-29T00:54:34.118Z,1016.02
2019-05-29T00:55:11.110Z,1016.05
2019-05-29T00:55:34.242Z,1016.04
2019-05-29T00:56:04.182Z,1016.06
2019-05-29T00:56:34.121Z,1016.02
2019-05-29T00:57:04.185Z,1016.03
2019-05-29T00:57:34.214Z,1016.03
2019-05-29T00:58:04.186Z,1016.04
2019-05-29T00:58:34.125Z,1016.03
2019-05-29T00:59:04.186Z,1016.04
2019-05-29T00:59:34.173Z,1016.01
2019-05-29T01:00:04.174Z,1016.01
2019-05-29T01:00:34.119Z,1016.00
2019-05-29T01:01:04.177Z,1015.99
2019-05-29T01:01:34.201Z,1016.01
2019-05-29T01:02:04.183Z,1016.02
2019-05-29T01:02:34.120Z,1016.01
2019-05-29T01:03:04.199Z,1016.00
2019-05-29T01:03:35.181Z,1016.00
2019-05-29T01:04:04.182Z,1016.00
2019-05-29T01:05:04.193Z,1016.03
2019-05-29T01:05:40.164Z,1016.03
2019-05-29T01:06:04.182Z,1016.05
2019-05-29T01:06:34.129Z,1016.07
2019-05-29T01:07:04.181Z,1016.07
2019-05-29T01:07:34.128Z,1016.07
2019-05-29T01:08:04.243Z,1016.07
2019-05-29T01:08:34.155Z,1016.07
2019-05-29T01:09:04.197Z,1016.07
2019-05-29T01:09:34.125Z,1016.05
2019-05-29T01:10:04.206Z,1016.06
2019-05-29T01:10:34.125Z,1016.08
2019-05-29T01:11:04.221Z,1016.10
2019-05-29T01:11:34.122Z,1016.04
2019-05-29T01:12:04.179Z,1016.06
2019-05-29T01:12:34.129Z,1016.09
2019-05-29T01:13:04.187Z,1016.05
2019-05-29T01:13:34.131Z,1016.06
2019-05-29T01:14:05.251Z,1016.07
2019-05-29T01:14:47.226Z,1016.08
2019-05-29T01:15:07.117Z,1016.09
2019-05-29T01:15:34.125Z,1016.09
2019-05-29T01:16:11.227Z,1016.10
2019-05-29T01:16:34.127Z,1016.11
2019-05-29T01:17:04.185Z,1016.09
2019-05-29T01:17:34.128Z,1016.10
2019-05-29T01:18:04.205Z,1016.09
2019-05-29T01:18:34.137Z,1016.07
2019-05-29T01:19:04.202Z,1016.11
2019-05-29T01:19:34.126Z,1016.11
2019-05-29T01:20:04.190Z,1016.09
2019-05-29T01:20:34.259Z,1016.12
2019-05-29T01:21:04.190Z,1016.10
2019-05-29T01:21:34.146Z,1016.08
2019-05-29T01:22:04.233Z,1016.09
2019-05-29T01:22:34.227Z,1016.11
2019-05-29T01:23:04.189Z,1016.14
2019-05-29T01:23:34.131Z,1016.14
2019-05-29T01:24:04.187Z,1016.12
2019-05-29T01:24:35.250Z,1016.17
2019-05-29T01:25:04.262Z,1016.16
2019-05-29T01:25:38.168Z,1016.15
2019-05-29T01:26:04.189Z,1016.14
2019-05-29T01:26:40.175Z,1016.13
2019-05-29T01:27:04.186Z,1016.14
2019-05-29T01:27:34.129Z,1016.16
2019-05-29T01:28:04.221Z,1016.15
2019-05-29T01:28:34.135Z,1016.16
2019-05-29T01:29:04.189Z,1016.15
2019-05-29T01:29:34.128Z,1016.15
2019-05-29T01:30:04.184Z,1016.17
2019-05-29T01:30:34.137Z,1016.17
2019-05-29T01:31:04.297Z,1016.18
2019-05-29T01:31:34.148Z,1016.16
2019-05-29T01:32:04.200Z,1016.17
2019-05-29T01:32:34.120Z,1016.17
2019-05-29T01:33:04.269Z,1016.17
2019-05-29T01:33:34.136Z,1016.19
2019-05-29T01:34:04.186Z,1016.17
2019-05-29T01:34:34.132Z,1016.20
2019-05-29T01:35:05.242Z,1016.17
2019-05-29T01:35:34.143Z,1016.18
2019-05-29T01:36:07.116Z,1016.20
2019-05-29T01:36:34.125Z,1016.21
2019-05-29T01:37:34.129Z,1016.22
2019-05-29T01:38:04.191Z,1016.25
2019-05-29T01:38:34.129Z,1016.20
2019-05-29T01:39:04.213Z,1016.22
2019-05-29T01:39:34.162Z,1016.25
2019-05-29T01:40:18.998Z,1016.24
2019-05-29T01:40:34.131Z,1016.23
2019-05-29T01:41:04.244Z,1016.23
2019-05-29T01:41:34.145Z,1016.24
2019-05-29T01:42:04.189Z,1016.24
2019-05-29T01:42:34.145Z,1016.26
2019-05-29T01:43:04.193Z,1016.26
2019-05-29T01:43:34.134Z,1016.25
2019-05-29T01:44:04.197Z,1016.27
2019-05-29T01:44:34.131Z,1016.25
2019-05-29T01:45:09.219Z,1016.28
2019-05-29T01:45:35.282Z,1016.27
2019-05-29T01:46:04.203Z,1016.27
2019-05-29T01:46:38.166Z,1016.27
2019-05-29T01:47:04.188Z,1016.24
2019-05-29T01:47:40.189Z,1016.25
2019-05-29T01:48:04.185Z,1016.22
2019-05-29T01:48:34.135Z,1016.23
2019-05-29T01:49:04.201Z,1016.24
2019-05-29T01:49:34.247Z,1016.26
2019-05-29T01:50:04.194Z,1016.27
2019-05-29T01:50:34.132Z,1016.27
2019-05-29T01:51:04.189Z,1016.25
2019-05-29T01:51:34.196Z,1016.28
2019-05-29T01:52:04.193Z,1016.28
2019-05-29T01:52:34.133Z,1016.26
2019-05-29T01:53:04.188Z,1016.29
2019-05-29T01:53:34.154Z,1016.29
2019-05-29T01:54:04.194Z,1016.30
2019-05-29T01:54:34.137Z,1016.29
2019-05-29T01:55:04.189Z,1016.31
2019-05-29T01:55:34.145Z,1016.32
2019-05-29T01:56:05.363Z,1016.30
2019-05-29T01:56:34.131Z,1016.32
2019-05-29T01:57:34.137Z,1016.34
2019-05-29T01:58:10.147Z,1016.36
2019-05-29T01:58:34.135Z,1016.37
2019-05-29T01:59:04.191Z,1016.35
2019-05-29T01:59:34.148Z,1016.36
2019-05-29T02:00:04.251Z,1016.34
2019-05-29T02:00:34.154Z,1016.35
2019-05-29T02:01:04.194Z,1016.34
2019-05-29T02:01:34.135Z,1016.36
2019-05-29T02:02:04.244Z,1016.32
2019-05-29T02:02:34.786Z,1016.34
2019-05-29T02:03:04.189Z,1016.33
2019-05-29T02:03:34.138Z,1016.33
2019-05-29T02:04:04.214Z,1016.33
2019-05-29T02:04:34.142Z,1016.36
2019-05-29T02:05:04.194Z,1016.33
2019-05-29T02:05:34.134Z,1016.36
2019-05-29T02:06:04.193Z,1016.35
2019-05-29T02:06:35.191Z,1016.39
2019-05-29T02:07:04.196Z,1016.38
2019-05-29T02:07:37.160Z,1016.38
2019-05-29T02:08:04.200Z,1016.40
2019-05-29T02:08:40.208Z,1016.41
2019-05-29T02:09:04.198Z,1016.41
2019-05-29T02:09:34.141Z,1016.39
2019-05-29T02:10:04.188Z,1016.43
2019-05-29T02:10:34.139Z,1016.43
2019-05-29T02:11:04.197Z,1016.43
2019-05-29T02:11:34.144Z,1016.42
2019-05-29T02:12:04.190Z,1016.45
2019-05-29T02:12:34.262Z,1016.43
2019-05-29T02:13:04.207Z,1016.44
2019-05-29T02:13:34.143Z,1016.45
2019-05-29T02:14:04.205Z,1016.45
2019-05-29T02:14:34.267Z,1016.49
2019-05-29T02:15:04.205Z,1016.46
2019-05-29T02:15:36.155Z,1016.47
2019-05-29T02:16:04.202Z,1016.47
2019-05-29T02:16:34.212Z,1016.45
2019-05-29T02:17:05.370Z,1016.45
2019-05-29T02:17:34.136Z,1016.51
2019-05-29T02:18:07.144Z,1016.49
2019-05-29T02:18:34.208Z,1016.49
2019-05-29T02:19:10.162Z,1016.48
2019-05-29T02:19:34.138Z,1016.49
2019-05-29T02:20:04.202Z,1016.50
2019-05-29T02:20:34.182Z,1016.49
2019-05-29T02:21:04.225Z,1016.46
2019-05-29T02:21:34.305Z,1016.46
2019-05-29T02:22:06.820Z,1016.46
2019-05-29T02:22:34.135Z,1016.49
2019-05-29T02:23:04.287Z,1016.49
2019-05-29T02:23:34.812Z,1016.52
2019-05-29T02:24:04.197Z,1016.51
2019-05-29T02:24:34.138Z,1016.56
2019-05-29T02:25:04.292Z,1016.50
2019-05-29T02:25:34.150Z,1016.55
2019-05-29T02:26:04.200Z,1016.50
2019-05-29T02:26:34.179Z,1016.53
2019-05-29T02:27:04.277Z,1016.53
2019-05-29T02:27:35.467Z,1016.53
2019-05-29T02:28:04.202Z,1016.54
2019-05-29T02:28:38.169Z,1016.57
2019-05-29T02:29:04.227Z,1016.54
2019-05-29T02:30:04.269Z,1016.56
2019-05-29T02:30:34.158Z,1016.59
2019-05-29T02:31:04.205Z,1016.52
2019-05-29T02:31:34.142Z,1016.56
2019-05-29T02:32:04.199Z,1016.58
2019-05-29T02:32:34.156Z,1016.57
2019-05-29T02:33:04.228Z,1016.57
2019-05-29T02:33:34.153Z,1016.58
2019-05-29T02:34:09.235Z,1016.58
2019-05-29T02:34:34.142Z,1016.61
2019-05-29T02:35:04.201Z,1016.58
2019-05-29T02:35:34.143Z,1016.60
2019-05-29T02:36:04.214Z,1016.60
2019-05-29T02:36:34.151Z,1016.59
2019-05-29T02:37:04.205Z,1016.59
2019-05-29T02:37:34.169Z,1016.61
2019-05-29T02:38:05.467Z,1016.60
2019-05-29T02:38:34.140Z,1016.57
2019-05-29T02:39:07.117Z,1016.58
2019-05-29T02:39:34.216Z,1016.58
2019-05-29T02:40:10.148Z,1016.62
2019-05-29T02:40:34.144Z,1016.59
2019-05-29T02:41:04.206Z,1016.64
2019-05-29T02:41:34.246Z,1016.63
2019-05-29T02:42:04.204Z,1016.63
2019-05-29T02:42:34.151Z,1016.65
2019-05-29T02:43:04.206Z,1016.66
2019-05-29T02:43:34.192Z,1016.66
2019-05-29T02:44:04.201Z,1016.67
2019-05-29T02:44:34.150Z,1016.65
2019-05-29T02:45:04.220Z,1016.67
2019-05-29T02:45:53.410Z,1016.66
2019-05-29T02:46:04.206Z,1016.66
2019-05-29T02:46:34.150Z,1016.68
2019-05-29T02:47:04.201Z,1016.73
2019-05-29T02:47:34.155Z,1016.70
2019-05-29T02:48:04.342Z,1016.67
2019-05-29T02:48:35.294Z,1016.72
2019-05-29T02:49:04.216Z,1016.74
2019-05-29T02:50:04.223Z,1016.76
2019-05-29T02:50:40.208Z,1016.75
2019-05-29T02:51:04.211Z,1016.77
2019-05-29T02:51:34.152Z,1016.73
2019-05-29T02:52:04.201Z,1016.75
2019-05-29T02:52:34.160Z,1016.75
2019-05-29T02:53:04.205Z,1016.77
2019-05-29T02:53:34.167Z,1016.78
2019-05-29T02:54:04.273Z,1016.81
2019-05-29T02:54:34.159Z,1016.84
2019-05-29T02:55:04.213Z,1016.83
2019-05-29T02:55:34.153Z,1016.80
2019-05-29T02:56:04.288Z,1016.83
2019-05-29T02:56:34.159Z,1016.83
2019-05-29T02:57:04.204Z,1016.83
2019-05-29T02:57:34.151Z,1016.82
2019-05-29T02:58:04.224Z,1016.84
2019-05-29T02:58:34.153Z,1016.81
2019-05-29T02:59:05.269Z,1016.81
2019-05-29T02:59:34.155Z,1016.87
2019-05-29T03:00:07.130Z,1016.85
2019-05-29T03:00:34.152Z,1016.84
2019-05-29T03:01:10.142Z,1016.84
2019-05-29T03:01:34.149Z,1016.87
2019-05-29T03:02:04.254Z,1016.86
2019-05-29T03:02:34.165Z,1016.88
2019-05-29T03:03:04.209Z,1016.87
2019-05-29T03:03:40.157Z,1016.89
2019-05-29T03:04:04.218Z,1016.89
2019-05-29T03:04:35.196Z,1016.91
2019-05-29T03:05:04.205Z,1016.90
2019-05-29T03:05:34.155Z,1016.87
2019-05-29T03:06:04.223Z,1016.89
2019-05-29T03:06:35.945Z,1016.92
2019-05-29T03:07:04.222Z,1016.91
2019-05-29T03:07:34.157Z,1016.90
2019-05-29T03:08:04.204Z,1016.90
2019-05-29T03:08:36.167Z,1016.91
2019-05-29T03:09:04.213Z,1016.92
2019-05-29T03:09:35.266Z,1016.91
2019-05-29T03:10:04.212Z,1016.90
2019-05-29T03:10:37.156Z,1016.93
2019-05-29T03:11:04.213Z,1016.94
2019-05-29T03:11:40.132Z,1016.91
2019-05-29T03:12:04.213Z,1016.94
2019-05-29T03:12:38.137Z,1016.92
2019-05-29T03:13:04.338Z,1016.94
2019-05-29T03:13:35.163Z,1016.95
2019-05-29T03:14:04.219Z,1016.92
2019-05-29T03:14:36.180Z,1016.93
2019-05-29T03:15:04.347Z,1016.93
2019-05-29T03:15:35.167Z,1016.95
2019-05-29T03:16:12.313Z,1016.91
2019-05-29T03:16:36.175Z,1016.92
2019-05-29T03:17:04.214Z,1016.93
2019-05-29T03:17:35.181Z,1016.92
2019-05-29T03:18:04.218Z,1016.95
2019-05-29T03:18:36.189Z,1016.96
2019-05-29T03:19:04.323Z,1016.97
2019-05-29T03:20:05.291Z,1017.02
2019-05-29T03:20:36.174Z,1016.97
2019-05-29T03:21:07.136Z,1017.00
2019-05-29T03:21:36.195Z,1017.01
2019-05-29T03:22:36.181Z,1017.01
2019-05-29T03:23:04.219Z,1017.06
2019-05-29T03:23:37.180Z,1017.04
2019-05-29T03:24:04.226Z,1017.05
2019-05-29T03:25:04.216Z,1017.06
2019-05-29T03:25:37.251Z,1017.09
2019-05-29T03:26:04.221Z,1017.09
2019-05-29T03:26:36.173Z,1017.10
2019-05-29T03:27:04.229Z,1017.09
2019-05-29T03:27:35.291Z,1017.11
2019-05-29T03:28:04.347Z,1017.12
2019-05-29T03:28:38.166Z,1017.16
2019-05-29T03:29:04.217Z,1017.13
2019-05-29T03:30:04.215Z,1017.17
2019-05-29T03:30:45.601Z,1017.18
2019-05-29T03:31:04.248Z,1017.19
2019-05-29T03:31:46.855Z,1017.18
2019-05-29T03:32:04.256Z,1017.17
2019-05-29T03:32:47.935Z,1017.20
2019-05-29T03:33:04.237Z,1017.22
2019-05-29T03:33:48.550Z,1017.22
2019-05-29T03:34:04.263Z,1017.23
2019-05-29T03:35:04.217Z,1017.25
2019-05-29T03:35:46.708Z,1017.25
2019-05-29T03:36:04.240Z,1017.25
2019-05-29T03:36:46.305Z,1017.28
2019-05-29T03:37:04.250Z,1017.27
2019-05-29T03:37:36.174Z,1017.26
2019-05-29T03:38:04.218Z,1017.26
2019-05-29T03:38:36.174Z,1017.29
2019-05-29T03:39:04.213Z,1017.29
2019-05-29T03:40:04.389Z,1017.29
2019-05-29T03:40:36.177Z,1017.29
2019-05-29T03:41:05.306Z,1017.30
2019-05-29T03:41:36.185Z,1017.31
2019-05-29T03:42:36.179Z,1017.33
2019-05-29T03:43:10.149Z,1017.33
2019-05-29T03:43:36.367Z,1017.34
2019-05-29T03:44:04.295Z,1017.36
2019-05-29T03:45:04.213Z,1017.34
2019-05-29T03:45:37.906Z,1017.37
2019-05-29T03:46:04.259Z,1017.39
2019-05-29T03:46:45.137Z,1017.37
2019-05-29T03:47:04.219Z,1017.39
2019-05-29T03:47:37.382Z,1017.40
2019-05-29T03:48:04.239Z,1017.39
2019-05-29T03:48:36.176Z,1017.37
2019-05-29T03:49:04.233Z,1017.38
2019-05-29T03:50:04.219Z,1017.41
2019-05-29T03:50:36.177Z,1017.39
2019-05-29T03:51:04.267Z,1017.39
2019-05-29T03:51:39.378Z,1017.39
2019-05-29T03:52:04.223Z,1017.41
2019-05-29T03:52:40.264Z,1017.44
2019-05-29T03:53:05.555Z,1017.42
2019-05-29T03:53:42.206Z,1017.42
2019-05-29T03:54:04.248Z,1017.44
2019-05-29T03:54:42.184Z,1017.45
2019-05-29T03:55:37.707Z,1017.45
2019-05-29T03:56:04.231Z,1017.44
2019-05-29T03:56:36.237Z,1017.46
2019-05-29T03:57:04.223Z,1017.46
2019-05-29T03:58:04.222Z,1017.46
2019-05-29T03:58:39.213Z,1017.46
2019-05-29T03:59:04.222Z,1017.47
2019-05-29T03:59:39.206Z,1017.51
2019-05-29T04:00:45.842Z,1017.51
2019-05-29T04:01:04.238Z,1017.55
2019-05-29T04:01:37.382Z,1017.54
2019-05-29T04:02:05.352Z,1017.55
2019-05-29T04:03:07.169Z,1017.54
2019-05-29T04:03:39.223Z,1017.58
2019-05-29T04:04:10.176Z,1017.57
2019-05-29T04:04:38.184Z,1017.57
2019-05-29T04:05:37.929Z,1017.58
2019-05-29T04:06:04.222Z,1017.57
2019-05-29T04:06:37.504Z,1017.59
2019-05-29T04:07:04.347Z,1017.58
2019-05-29T04:08:17.202Z,1017.59
2019-05-29T04:08:45.044Z,1017.62
2019-05-29T04:09:15.037Z,1017.62
2019-05-29T04:09:45.046Z,1017.62
2019-05-29T04:10:45.039Z,1017.65
2019-05-29T04:11:14.988Z,1017.68
2019-05-29T04:11:45.056Z,1017.70
2019-05-29T04:12:18.680Z,1017.69
2019-05-29T04:13:14.988Z,1017.72
2019-05-29T04:13:45.074Z,1017.71
2019-05-29T04:14:15.000Z,1017.72
2019-05-29T04:14:45.047Z,1017.72
2019-05-29T04:15:45.224Z,1017.71
2019-05-29T04:16:14.985Z,1017.74
2019-05-29T04:16:59.447Z,1017.72
2019-05-29T04:17:14.987Z,1017.74
2019-05-29T04:18:19.299Z,1017.75
2019-05-29T04:18:51.094Z,1017.75
2019-05-29T04:19:14.988Z,1017.76
2019-05-29T04:19:45.100Z,1017.76
2019-05-29T04:20:45.052Z,1017.78
2019-05-29T04:21:14.979Z,1017.79
2019-05-29T04:21:45.063Z,1017.77
2019-05-29T04:22:14.984Z,1017.78
2019-05-29T04:23:14.992Z,1017.82
2019-05-29T04:23:45.057Z,1017.79
2019-05-29T04:24:14.985Z,1017.81
2019-05-29T04:24:45.053Z,1017.81
2019-05-29T04:25:45.054Z,1017.79
2019-05-29T04:26:14.992Z,1017.80
2019-05-29T04:26:45.056Z,1017.79
2019-05-29T04:27:17.254Z,1017.84
2019-05-29T04:28:19.090Z,1017.83
2019-05-29T04:28:45.050Z,1017.80
2019-05-29T04:29:17.087Z,1017.85
2019-05-29T04:29:45.055Z,1017.85
2019-05-29T04:30:45.059Z,1017.87
2019-05-29T04:31:15.092Z,1017.88
2019-05-29T04:31:45.061Z,1017.90
2019-05-29T04:32:15.053Z,1017.90
2019-05-29T04:33:14.996Z,1017.90
2019-05-29T04:33:45.084Z,1017.94
2019-05-29T04:34:14.997Z,1017.94
2019-05-29T04:34:45.056Z,1017.97
2019-05-29T04:35:45.055Z,1017.95
2019-05-29T04:36:14.989Z,1017.99
2019-05-29T04:36:45.054Z,1017.99
2019-05-29T04:37:14.992Z,1018.00
2019-05-29T04:38:15.019Z,1018.02
2019-05-29T04:38:49.259Z,1018.00
2019-05-29T04:39:14.994Z,1018.02
2019-05-29T04:39:51.082Z,1018.03
2019-05-29T04:40:45.052Z,1018.04
2019-05-29T04:41:15.001Z,1018.09
2019-05-29T04:41:45.053Z,1018.08
2019-05-29T04:42:14.992Z,1018.06
2019-05-29T04:43:14.991Z,1018.12
2019-05-29T04:43:45.051Z,1018.09
2019-05-29T04:44:14.990Z,1018.09
2019-05-29T04:44:45.114Z,1018.12
2019-05-29T04:45:45.054Z,1018.13
2019-05-29T04:46:14.990Z,1018.13
2019-05-29T04:46:45.107Z,1018.15
2019-05-29T04:47:15.014Z,1018.17
2019-05-29T04:48:17.141Z,1018.19
2019-05-29T04:48:45.059Z,1018.18
2019-05-29T04:49:22.122Z,1018.18
2019-05-29T04:49:45.058Z,1018.22
2019-05-29T04:50:45.050Z,1018.22
2019-05-29T04:51:14.989Z,1018.22
2019-05-29T04:51:45.055Z,1018.18
2019-05-29T04:52:15.230Z,1018.21
2019-05-29T04:53:14.989Z,1018.21
2019-05-29T04:53:45.060Z,1018.24
2019-05-29T04:54:15.034Z,1018.26
2019-05-29T04:54:45.057Z,1018.28
2019-05-29T04:55:45.074Z,1018.26
2019-05-29T04:56:15.003Z,1018.28
2019-05-29T04:56:45.051Z,1018.27
2019-05-29T04:57:15.083Z,1018.29
2019-05-29T04:58:15.003Z,1018.30
2019-05-29T04:58:47.227Z,1018.30
2019-05-29T04:59:15.057Z,1018.34
2019-05-29T04:59:49.182Z,1018.32
2019-05-29T05:00:58.801Z,1018.33
2019-05-29T05:01:15.052Z,1018.34
2019-05-29T05:01:46.068Z,1018.35
2019-05-29T05:02:15.004Z,1018.33
2019-05-29T05:03:14.990Z,1018.37
2019-05-29T05:03:45.063Z,1018.35
2019-05-29T05:04:14.998Z,1018.37
2019-05-29T05:04:45.097Z,1018.39
2019-05-29T05:05:45.206Z,1018.39
2019-05-29T05:06:14.996Z,1018.37
2019-05-29T05:06:45.062Z,1018.38
2019-05-29T05:07:16.001Z,1018.42
2019-05-29T05:08:14.991Z,1018.41
2019-05-29T05:08:45.076Z,1018.45
2019-05-29T05:09:17.244Z,1018.47
2019-05-29T05:09:45.126Z,1018.47
2019-05-29T05:10:45.062Z,1018.45
2019-05-29T05:11:17.084Z,1018.44
2019-05-29T05:11:45.104Z,1018.48
2019-05-29T05:12:15.000Z,1018.47
2019-05-29T05:13:15.015Z,1018.50
2019-05-29T05:13:45.060Z,1018.46
2019-05-29T05:14:14.994Z,1018.45
2019-05-29T05:14:45.068Z,1018.46
2019-05-29T05:15:45.132Z,1018.49
2019-05-29T05:16:15.265Z,1018.49
2019-05-29T05:16:45.063Z,1018.50
2019-05-29T05:17:26.011Z,1018.50
2019-05-29T05:18:15.004Z,1018.50
2019-05-29T05:18:45.082Z,1018.48
2019-05-29T05:19:18.192Z,1018.50
2019-05-29T05:19:47.258Z,1018.50
2019-05-29T05:20:49.238Z,1018.51
2019-05-29T05:21:14.996Z,1018.51
2019-05-29T05:21:51.096Z,1018.47
2019-05-29T05:22:15.140Z,1018.50
2019-05-29T05:23:15.003Z,1018.49
2019-05-29T05:23:45.060Z,1018.48
2019-05-29T05:24:15.103Z,1018.48
2019-05-29T05:24:46.069Z,1018.51
2019-05-29T05:25:45.134Z,1018.53
2019-05-29T05:26:15.081Z,1018.53
2019-05-29T05:26:45.064Z,1018.53
2019-05-29T05:27:15.045Z,1018.56
2019-05-29T05:28:15.016Z,1018.54
2019-05-29T05:28:48.213Z,1018.55
2019-05-29T05:29:15.020Z,1018.54
2019-05-29T05:29:45.076Z,1018.54
2019-05-29T05:30:45.401Z,1018.56
2019-05-29T05:31:19.248Z,1018.59
2019-05-29T05:31:45.072Z,1018.57
2019-05-29T05:32:17.127Z,1018.59
2019-05-29T05:33:15.002Z,1018.61
2019-05-29T05:33:45.064Z,1018.58
2019-05-29T05:34:15.011Z,1018.58
2019-05-29T05:34:45.167Z,1018.59
2019-05-29T05:35:45.070Z,1018.62
2019-05-29T05:36:15.063Z,1018.59
2019-05-29T05:36:45.069Z,1018.60
2019-05-29T05:37:15.122Z,1018.60
2019-05-29T05:38:15.001Z,1018.62
2019-05-29T05:38:45.076Z,1018.63
2019-05-29T05:39:15.012Z,1018.64
2019-05-29T05:39:45.077Z,1018.61
2019-05-29T05:40:47.194Z,1018.62
2019-05-29T05:41:15.005Z,1018.64
2019-05-29T05:41:49.182Z,1018.63
2019-05-29T05:42:15.003Z,1018.65
2019-05-29T05:43:23.934Z,1018.64
2019-05-29T05:43:45.088Z,1018.65
2019-05-29T05:44:15.010Z,1018.65
2019-05-29T05:44:45.064Z,1018.64
2019-05-29T05:45:45.070Z,1018.65
2019-05-29T05:46:15.019Z,1018.65
2019-05-29T05:46:45.120Z,1018.65
2019-05-29T05:47:15.005Z,1018.67
2019-05-29T05:47:57.204Z,1018.68
2019-05-29T05:48:15.008Z,1018.67
2019-05-29T05:48:45.071Z,1018.69
2019-05-29T05:49:15.042Z,1018.70
2019-05-29T05:49:45.070Z,1018.70
2019-05-29T05:50:15.004Z,1018.71
2019-05-29T05:51:17.281Z,1018.75
2019-05-29T05:51:46.099Z,1018.74
2019-05-29T05:52:19.286Z,1018.70
2019-05-29T05:52:45.066Z,1018.74
2019-05-29T05:53:45.064Z,1018.75
2019-05-29T05:54:15.011Z,1018.76
2019-05-29T05:54:45.073Z,1018.75
2019-05-29T05:55:15.019Z,1018.73
2019-05-29T05:56:15.013Z,1018.74
2019-05-29T05:56:45.072Z,1018.73
2019-05-29T05:57:15.007Z,1018.71
2019-05-29T05:57:45.290Z,1018.75
2019-05-29T05:58:45.197Z,1018.75
2019-05-29T05:59:15.013Z,1018.75
2019-05-29T05:59:45.169Z,1018.76
2019-05-29T06:00:15.015Z,1018.76
2019-05-29T06:01:15.018Z,1018.79
2019-05-29T06:01:47.343Z,1018.78
2019-05-29T06:02:15.025Z,1018.80
2019-05-29T06:02:52.425Z,1018.82
2019-05-29T06:03:51.114Z,1018.83
2019-05-29T06:04:15.014Z,1018.85
2019-05-29T06:04:45.070Z,1018.81
2019-05-29T06:05:15.011Z,1018.83
2019-05-29T06:06:15.012Z,1018.84
2019-05-29T06:06:45.070Z,1018.84
2019-05-29T06:07:15.033Z,1018.82
2019-05-29T06:07:45.136Z,1018.84
2019-05-29T06:08:45.075Z,1018.84
2019-05-29T06:09:15.004Z,1018.82
2019-05-29T06:09:45.076Z,1018.84
2019-05-29T06:10:15.022Z,1018.83
2019-05-29T06:11:15.014Z,1018.84
2019-05-29T06:11:45.080Z,1018.87
2019-05-29T06:12:17.316Z,1018.86
2019-05-29T06:12:45.069Z,1018.86
2019-05-29T06:13:45.074Z,1018.86
2019-05-29T06:14:21.122Z,1018.89
2019-05-29T06:14:45.074Z,1018.89
2019-05-29T06:15:15.026Z,1018.90
2019-05-29T06:16:15.087Z,1018.92
2019-05-29T06:16:45.081Z,1018.96
2019-05-29T06:17:15.019Z,1018.97
2019-05-29T06:18:04.997Z,1018.97
2019-05-29T06:18:45.087Z,1018.96
2019-05-29T06:19:15.017Z,1018.97
2019-05-29T06:19:45.079Z,1018.97
2019-05-29T06:20:15.048Z,1018.98
2019-05-29T06:21:15.021Z,1018.97
2019-05-29T06:21:45.085Z,1019.01
2019-05-29T06:22:15.010Z,1019.03
2019-05-29T06:22:47.329Z,1019.02
2019-05-29T06:23:49.260Z,1019.01
2019-05-29T06:24:15.015Z,1018.98
2019-05-29T06:24:51.111Z,1019.01
2019-05-29T06:25:15.012Z,1019.05
2019-05-29T06:26:16.023Z,1019.04
2019-05-29T06:26:45.116Z,1019.02
2019-05-29T06:27:15.015Z,1019.03
2019-05-29T06:27:45.100Z,1019.02
2019-05-29T06:28:45.084Z,1019.02
2019-05-29T06:29:15.019Z,1019.01
2019-05-29T06:29:45.088Z,1019.01
2019-05-29T06:30:15.015Z,1019.03
2019-05-29T06:31:15.041Z,1019.03
2019-05-29T06:31:45.075Z,1019.00
2019-05-29T06:32:15.043Z,1019.00
2019-05-29T06:32:45.080Z,1019.02
2019-05-29T06:33:46.084Z,1019.03
2019-05-29T06:34:19.153Z,1019.05
2019-05-29T06:34:45.084Z,1019.05
2019-05-29T06:35:17.143Z,1019.03
2019-05-29T06:36:15.020Z,1019.09
2019-05-29T06:36:49.113Z,1019.05
2019-05-29T06:37:15.020Z,1019.10
2019-05-29T06:37:45.084Z,1019.10
2019-05-29T06:38:46.088Z,1019.09
2019-05-29T06:39:15.015Z,1019.09
2019-05-29T06:39:45.091Z,1019.13
2019-05-29T06:40:15.497Z,1019.12
2019-05-29T06:41:15.027Z,1019.11
2019-05-29T06:41:46.091Z,1019.11
2019-05-29T06:42:15.027Z,1019.12
2019-05-29T06:42:46.093Z,1019.11
2019-05-29T06:43:47.341Z,1019.12
2019-05-29T06:44:15.019Z,1019.11